Time;durP1;ratioP1;P1;durP2;ratioP2;P2;SDS_P1;SDS_P2;PMS_P1;PMS_P2;Temp;Humidity;BMP_temperature;BMP_pressure;BME280_temperature;BME280_humidity;BME280_pressure;Samples;Min_cycle;Max_cycle;Signal;HPM_P1;HPM_P2
2023/08/03 01:01:59;;;;;;;;;16.75;13.25;;;;;25.07;61.18;100258.78;146706;564;46022;-74
2023/08/03 01:05:08;;;;;;;;;16.75;11.75;;;;;25.24;58.98;100261.22;146619;705;46016;-75
2023/08/03 01:08:20;;;;;;;;;14.25;13.75;;;;;25.43;58.61;100269.75;146621;626;46020;-75
2023/08/03 01:11:39;;;;;;;;;13.75;13.00;;;;;25.53;58.19;100251.88;146619;590;46016;-75
2023/08/03 01:14:54;;;;;;;;;;;;;;;;;;;;;
2023/08/03 01:18:05;;;;;;;;;14.75;12.00;;;;;25.94;58.07;100271.50;146620;676;46014;-76
2023/08/03 01:21:20;;;;;;;;;13.00;11.75;;;;;26.07;58.53;100272.16;146623;572;46010;-76
2023/08/03 01:24:33;;;;;;;;;14.75;13.50;;;;;26.20;58.71;100274.56;146619;574;46016;-74
2023/08/03 01:27:35;;;;;;;;;11.25;10.75;;;;;25.51;58.96;100126.25;146622;689;47014;-70
2023/08/03 01:30:44;;;;;;;;;12.00;11.75;;;;;26.50;59.15;100277.50;146619;580;45026;-73
2023/08/03 01:33:49;;;;;;;;;11.00;11.00;;;;;26.71;58.77;100270.84;146623;569;46010;-75
2023/08/03 01:36:51;;;;;;;;;16.25;15.00;;;;;26.17;60.18;100154.16;146619;700;46918;-73
2023/08/03 01:39:54;;;;;;;;;12.50;12.50;;;;;27.09;58.75;100277.94;146625;582;45020;-75
2023/08/03 01:43:05;;;;;;;;;13.00;12.67;;;;;27.28;59.82;100282.84;146621;594;46016;-70
2023/08/03 01:46:10;;;;;;;;;17.75;16.00;;;;;27.47;62.48;100286.78;146623;679;46011;-74
2023/08/03 01:49:15;;;;;;;;;12.33;11.67;;;;;27.59;59.84;100277.63;146622;603;46014;-74
2023/08/03 01:52:08;;;;;;;;;13.00;11.00;;;;;27.72;59.91;100288.84;146619;726;47010;-73
2023/08/03 01:55:16;;;;;;;;;;;;;;;;;;;;;
2023/08/03 01:58:19;;;;;;;;;16.33;15.67;;;;;27.99;58.69;100282.78;146624;609;46010;-72
2023/08/03 02:01:19;;;;;;;;;13.67;13.33;;;;;28.11;59.38;100284.25;146620;581;46012;-70
2023/08/03 02:04:23;;;;;;;;;11.67;11.67;;;;;28.21;59.42;100290.19;146626;572;46010;-73
2023/08/03 02:07:57;;;;;;;;;15.00;13.33;;;;;27.55;57.77;100170.31;146623;608;46013;-74
2023/08/03 02:11:06;;;;;;;;;14.33;13.67;;;;;27.57;58.74;100170.25;146623;609;46020;-72
2023/08/03 02:14:15;;;;;;;;;15.00;11.00;;;;;28.21;58.12;100292.88;146619;625;46017;-73
2023/08/03 02:17:20;;;;;;;;;17.67;14.33;;;;;28.19;58.76;100300.88;146623;566;47010;-74
2023/08/03 02:20:30;;;;;;;;;14.50;12.75;;;;;28.20;58.53;100302.66;146619;702;46016;-72
2023/08/03 02:23:39;;;;;;;;;13.00;10.67;;;;;28.18;57.41;100299.16;146626;686;46010;-72
2023/08/03 02:26:52;;;;;;;;;13.00;13.00;;;;;28.10;56.87;100298.50;146617;575;46016;-72
2023/08/03 02:29:57;;;;;;;;;12.33;11.67;;;;;27.96;57.21;100301.53;146623;566;46010;-72
2023/08/03 02:33:05;;;;;;;;;12.67;12.00;;;;;27.84;57.38;100307.19;146620;592;46016;-72
2023/08/03 02:36:15;;;;;;;;;13.67;12.67;;;;;27.63;56.91;100308.59;146623;631;46020;-73
2023/08/03 02:39:10;;;;;;;;;11.67;11.00;;;;;27.40;57.88;100312.69;146617;603;46012;-71
2023/08/03 02:42:05;;;;;;;;;11.67;11.67;;;;;27.23;57.80;100314.91;146623;727;46014;-70
2023/08/03 02:45:06;;;;;;;;;11.33;10.00;;;;;27.10;57.61;100318.72;146623;569;46013;-73
2023/08/03 02:48:02;;;;;;;;;12.00;11.33;;;;;26.94;57.83;100311.09;146622;615;46020;-74
2023/08/03 02:51:10;;;;;;;;;12.67;10.67;;;;;26.83;58.54;100306.94;146619;635;46017;-70
2023/08/03 02:54:42;;;;;;;;;12.33;12.00;;;;;26.73;58.42;100311.59;146620;566;46020;-73
2023/08/03 02:57:40;;;;;;;;;11.33;9.33;;;;;26.64;59.02;100319.78;146618;628;46018;-73
2023/08/03 03:00:37;;;;;;;;;10.00;10.00;;;;;26.55;59.39;100326.16;146624;597;46010;-72
2023/08/03 03:03:38;;;;;;;;;12.33;11.33;;;;;26.49;58.84;100323.62;146620;636;46012;-73
2023/08/03 03:06:43;;;;;;;;;12.33;11.33;;;;;26.43;58.75;100323.72;146624;631;46020;-73
2023/08/03 03:09:55;;;;;;;;;;;;;;;;;;;;;
2023/08/03 03:13:02;;;;;;;;;9.00;9.00;;;;;26.37;58.17;100315.84;146625;628;46015;-72
2023/08/03 03:16:04;;;;;;;;;12.00;10.33;;;;;26.37;58.54;100322.03;146622;605;46012;-73
2023/08/03 03:19:08;;;;;;;;;8.33;8.33;;;;;26.38;57.48;100325.56;146624;593;46014;-75
2023/08/03 03:22:05;;;;;;;;;10.25;10.25;;;;;26.40;57.61;100324.63;146618;615;46017;-74
2023/08/03 03:25:13;;;;;;;;;11.67;10.67;;;;;26.42;57.04;100325.50;146627;583;45020;-74
2023/08/03 03:28:24;;;;;;;;;11.33;10.33;;;;;24.96;57.01;100071.56;146619;576;45036;-75
2023/08/03 03:31:21;;;;;;;;;9.33;9.00;;;;;26.41;57.00;100328.16;146625;670;46010;-74
2023/08/03 03:34:25;;;;;;;;;14.00;11.00;;;;;26.42;56.83;100328.16;146620;569;47012;-73
2023/08/03 03:37:24;;;;;;;;;9.00;9.00;;;;;26.46;57.06;100329.84;146623;595;46010;-71
2023/08/03 03:40:27;;;;;;;;;10.33;9.33;;;;;26.52;56.61;100333.31;146618;677;46016;-74
2023/08/03 03:43:24;;;;;;;;;11.00;10.67;;;;;26.55;56.45;100330.59;146628;582;45020;-76
2023/08/03 03:46:34;;;;;;;;;11.00;10.00;;;;;26.55;56.21;100338.56;146619;570;46012;-74
2023/08/03 03:49:48;;;;;;;;;11.00;9.67;;;;;25.68;55.85;100190.53;146621;628;46010;-71
2023/08/03 03:52:44;;;;;;;;;8.33;8.33;;;;;26.47;55.70;100341.34;146621;603;46016;-72
2023/08/03 03:55:42;;;;;;;;;13.33;9.33;;;;;26.42;55.40;100346.75;146624;575;46038;-71
2023/08/03 03:58:45;;;;;;;;;11.00;10.00;;;;;26.39;55.39;100344.16;146619;706;46017;-74
2023/08/03 04:01:46;;;;;;;;;11.67;9.33;;;;;26.33;55.32;100340.75;146623;565;46020;-70
2023/08/03 04:04:46;;;;;;;;;11.33;10.00;;;;;26.31;55.64;100346.09;146624;565;46013;-70
2023/08/03 04:07:47;;;;;;;;;10.67;10.67;;;;;26.26;55.34;100343.53;146627;569;45020;-69
2023/08/03 04:10:44;;;;;;;;;11.00;9.67;;;;;26.21;55.58;100339.22;146619;597;46016;-74
2023/08/03 04:13:47;;;;;;;;;10.33;10.00;;;;;26.16;55.71;100349.91;146624;564;46021;-73
2023/08/03 04:16:56;;;;;;;;;;;;;;;;;;;;;
2023/08/03 04:19:49;;;;;;;;;10.00;10.00;;;;;26.11;56.10;100354.44;146622;622;46021;-75
2023/08/03 04:22:57;;;;;;;;;8.33;8.33;;;;;26.08;56.36;100357.16;146620;582;46016;-74
2023/08/03 04:25:50;;;;;;;;;8.33;7.33;;;;;26.09;56.91;100356.25;146625;623;46020;-72
2023/08/03 04:28:48;;;;;;;;;10.00;9.33;;;;;26.16;56.84;100360.53;146622;606;46016;-71
2023/08/03 04:31:45;;;;;;;;;9.00;9.00;;;;;26.25;56.65;100357.72;146626;573;46010;-71
2023/08/03 04:35:04;;;;;;;;;11.67;9.33;;;;;24.93;56.79;100114.91;146620;567;46012;-71
2023/08/03 04:38:05;;;;;;;;;8.33;7.33;;;;;26.57;56.85;100364.19;146627;577;45021;-72
2023/08/03 04:41:09;;;;;;;;;10.67;9.67;;;;;26.82;56.01;100371.66;146620;717;47012;-71
2023/08/03 04:44:13;;;;;;;;;9.00;9.00;;;;;27.02;55.37;100380.13;146627;577;45029;-72
2023/08/03 04:47:10;;;;;;;;;10.33;9.67;;;;;27.18;54.94;100381.56;146619;579;46016;-72
2023/08/03 04:50:05;;;;;;;;;10.00;10.00;;;;;27.35;54.96;100374.97;146623;567;47015;-72
2023/08/03 04:53:21;;;;;;;;;11.33;9.67;;;;;27.53;54.99;100381.62;146620;615;46916;-71
2023/08/03 04:56:12;;;;;;;;;12.00;11.00;;;;;27.68;53.45;100372.41;146626;572;46025;-72
2023/08/03 04:59:21;;;;;;;;;12.33;10.00;;;;;27.85;54.12;100376.44;146617;665;46039;-72
2023/08/03 05:02:14;;;;;;;;;12.67;11.00;;;;;28.02;54.72;100377.78;146639;584;45014;-73
2023/08/03 05:05:13;;;;;;;;;10.00;9.00;;;;;28.22;53.00;100393.25;146637;578;45916;-71
2023/08/03 05:08:27;;;;;;;;;10.00;10.00;;;;;28.34;52.94;100395.56;146642;617;46014;-71
2023/08/03 05:11:31;;;;;;;;;11.00;11.00;;;;;28.44;54.34;100385.56;146632;604;45016;-72
2023/08/03 05:14:27;;;;;;;;;13.25;11.50;;;;;28.59;54.39;100387.81;146638;668;45010;-72
